Pope, Mississippi
Current Conditions -  °F | °C
As of 2:55 PM on Friday 31 Oct 2014 (Local Time) from KUOX Reporting Station
Overcast Overcast  
Wind Chill: 54°   Ceiling: 4000
Heat Index: 54°   Visibility: 9mi
Dew Point: 43°   Wind: 13mph
Humidity: 67%   Direction: 350°N
Pressure: 30.12"   Gusts: 21mph
Location:  34.22°N, 89.95°W
Report Text: KUOX 311955Z AUTO 35011G18KT 9SM SCT029 OVC040 12/06 A3012 RMK AO2 PWINO PNO
Loading
Personal Weather Stations






























Interactive Weather Map
Tropical Storm Tracking
New forecast layout! Learn more

10-Day Weather Forecast

Advertisements
Track Severe Weather on mobile